sensor_id;sensor_type;location;lat;lon;timestamp;pressure;altitude;pressure_sealevel;temperature;humidity
55460;BME280;41326;45.302;-122.946;2023-02-24T00:00:20;99976.20;;;18.87;47.32
55460;BME280;41326;45.302;-122.946;2023-02-24T00:02:50;99968.31;;;18.81;47.30
55460;BME280;41326;45.302;-122.946;2023-02-24T00:05:20;99971.95;;;18.96;47.06
55460;BME280;41326;45.302;-122.946;2023-02-24T00:07:50;99966.13;;;19.10;46.76
55460;BME280;41326;45.302;-122.946;2023-02-24T00:10:21;99967.53;;;19.04;47.02
55460;BME280;41326;45.302;-122.946;2023-02-24T00:12:52;99969.76;;;18.97;47.12
55460;BME280;41326;45.302;-122.946;2023-02-24T00:15:22;99971.56;;;18.92;47.27
55460;BME280;41326;45.302;-122.946;2023-02-24T00:17:52;99975.27;;;18.86;47.51
55460;BME280;41326;45.302;-122.946;2023-02-24T00:20:23;99975.07;;;18.86;47.42
55460;BME280;41326;45.302;-122.946;2023-02-24T00:22:53;99978.54;;;18.85;47.17
55460;BME280;41326;45.302;-122.946;2023-02-24T00:25:24;99995.45;;;18.96;47.12
55460;BME280;41326;45.302;-122.946;2023-02-24T00:27:54;99989.94;;;19.10;46.51
55460;BME280;41326;45.302;-122.946;2023-02-24T00:30:24;99995.83;;;19.15;46.44
55460;BME280;41326;45.302;-122.946;2023-02-24T00:32:54;100003.56;;;19.10;46.81
55460;BME280;41326;45.302;-122.946;2023-02-24T00:35:25;100016.93;;;18.96;47.16
55460;BME280;41326;45.302;-122.946;2023-02-24T00:37:55;100025.56;;;18.91;47.22
55460;BME280;41326;45.302;-122.946;2023-02-24T00:40:26;100036.81;;;19.00;46.95
55460;BME280;41326;45.302;-122.946;2023-02-24T00:42:56;100045.91;;;19.14;46.57
55460;BME280;41326;45.302;-122.946;2023-02-24T00:45:26;100045.04;;;19.22;46.40
55460;BME280;41326;45.302;-122.946;2023-02-24T00:47:57;100047.07;;;19.13;46.70
55460;BME280;41326;45.302;-122.946;2023-02-24T00:50:27;100054.35;;;19.09;46.96
55460;BME280;41326;45.302;-122.946;2023-02-24T00:52:58;100058.22;;;19.04;46.94
55460;BME280;41326;45.302;-122.946;2023-02-24T00:55:27;100067.96;;;18.97;47.09
55460;BME280;41326;45.302;-122.946;2023-02-24T00:57:58;100063.60;;;18.94;47.00
55460;BME280;41326;45.302;-122.946;2023-02-24T01:00:28;100074.79;;;19.04;45.27
55460;BME280;41326;45.302;-122.946;2023-02-24T01:02:58;100075.46;;;19.14;44.91
55460;BME280;41326;45.302;-122.946;2023-02-24T01:05:29;100078.97;;;19.08;43.83
55460;BME280;41326;45.302;-122.946;2023-02-24T01:08:00;100072.05;;;18.84;41.59
55460;BME280;41326;45.302;-122.946;2023-02-24T01:10:30;100079.81;;;18.59;40.57
55460;BME280;41326;45.302;-122.946;2023-02-24T01:13:00;100074.72;;;18.41;40.86
55460;BME280;41326;45.302;-122.946;2023-02-24T01:15:31;100076.66;;;18.38;40.51
55460;BME280;41326;45.302;-122.946;2023-02-24T01:18:01;100080.90;;;18.48;42.07
55460;BME280;41326;45.302;-122.946;2023-02-24T01:20:31;100088.13;;;18.61;43.09
55460;BME280;41326;45.302;-122.946;2023-02-24T01:23:01;100097.64;;;18.74;43.64
55460;BME280;41326;45.302;-122.946;2023-02-24T01:25:32;100105.46;;;18.72;44.96
55460;BME280;41326;45.302;-122.946;2023-02-24T01:28:03;100107.36;;;18.66;45.77
55460;BME280;41326;45.302;-122.946;2023-02-24T01:30:33;100124.25;;;18.61;46.31
55460;BME280;41326;45.302;-122.946;2023-02-24T01:33:03;100123.45;;;18.55;46.45
55460;BME280;41326;45.302;-122.946;2023-02-24T01:35:33;100137.53;;;18.67;46.32
55460;BME280;41326;45.302;-122.946;2023-02-24T01:38:04;100135.23;;;18.83;45.99
55460;BME280;41326;45.302;-122.946;2023-02-24T01:40:35;100147.15;;;18.97;45.65
55460;BME280;41326;45.302;-122.946;2023-02-24T01:43:05;100157.86;;;18.95;45.89
55460;BME280;41326;45.302;-122.946;2023-02-24T01:45:36;100155.03;;;18.80;46.37
55460;BME280;41326;45.302;-122.946;2023-02-24T01:48:08;100167.44;;;18.70;46.72
55460;BME280;41326;45.302;-122.946;2023-02-24T01:50:38;100165.98;;;18.74;46.55
55460;BME280;41326;45.302;-122.946;2023-02-24T01:53:09;100173.42;;;18.91;46.25
55460;BME280;41326;45.302;-122.946;2023-02-24T01:55:40;100174.74;;;18.98;46.06
55460;BME280;41326;45.302;-122.946;2023-02-24T01:58:12;100182.92;;;18.96;46.09
55460;BME280;41326;45.302;-122.946;2023-02-24T02:00:39;100194.39;;;18.90;46.38
55460;BME280;41326;45.302;-122.946;2023-02-24T02:05:39;100215.78;;;18.88;46.45
55460;BME280;41326;45.302;-122.946;2023-02-24T02:08:09;100219.94;;;19.05;45.96
55460;BME280;41326;45.302;-122.946;2023-02-24T02:10:40;100215.74;;;19.14;45.88
55460;BME280;41326;45.302;-122.946;2023-02-24T02:13:10;100218.57;;;18.98;46.32
55460;BME280;41326;45.302;-122.946;2023-02-24T02:15:46;100226.29;;;18.90;46.54
55460;BME280;41326;45.302;-122.946;2023-02-24T02:18:16;100233.99;;;18.82;46.90
55460;BME280;41326;45.302;-122.946;2023-02-24T02:20:52;100245.52;;;18.98;46.52
55460;BME280;41326;45.302;-122.946;2023-02-24T02:25:55;100255.07;;;19.09;46.48
55460;BME280;41326;45.302;-122.946;2023-02-24T02:28:24;100259.62;;;19.04;46.54
55460;BME280;41326;45.302;-122.946;2023-02-24T02:30:50;100264.73;;;18.91;46.82
55460;BME280;41326;45.302;-122.946;2023-02-24T02:35:48;100272.76;;;18.72;47.46
55460;BME280;41326;45.302;-122.946;2023-02-24T02:38:18;100284.83;;;18.68;47.47
55460;BME280;41326;45.302;-122.946;2023-02-24T02:40:47;100288.40;;;18.60;47.71
55460;BME280;41326;45.302;-122.946;2023-02-24T02:43:19;100289.44;;;18.60;47.60
55460;BME280;41326;45.302;-122.946;2023-02-24T02:45:46;100296.18;;;18.73;47.41
55460;BME280;41326;45.302;-122.946;2023-02-24T02:48:19;100301.65;;;18.85;47.07
55460;BME280;41326;45.302;-122.946;2023-02-24T02:50:50;100307.83;;;18.85;46.97
55460;BME280;41326;45.302;-122.946;2023-02-24T02:53:18;100317.71;;;18.82;47.10
55460;BME280;41326;45.302;-122.946;2023-02-24T02:55:49;100325.67;;;18.74;47.43
55460;BME280;41326;45.302;-122.946;2023-02-24T02:58:21;100328.84;;;18.65;47.63
55460;BME280;41326;45.302;-122.946;2023-02-24T03:00:48;100328.52;;;18.60;47.62
55460;BME280;41326;45.302;-122.946;2023-02-24T03:03:17;100333.94;;;18.61;47.59
55460;BME280;41326;45.302;-122.946;2023-02-24T03:05:50;100338.28;;;18.76;47.09
55460;BME280;41326;45.302;-122.946;2023-02-24T03:08:20;100333.10;;;18.83;47.13
55460;BME280;41326;45.302;-122.946;2023-02-24T03:10:48;100336.36;;;18.83;47.12
55460;BME280;41326;45.302;-122.946;2023-02-24T03:13:19;100335.72;;;18.80;47.14
55460;BME280;41326;45.302;-122.946;2023-02-24T03:15:49;100342.15;;;18.74;47.37
55460;BME280;41326;45.302;-122.946;2023-02-24T03:18:20;100347.31;;;18.63;47.62
55460;BME280;41326;45.302;-122.946;2023-02-24T03:20:52;100352.69;;;18.56;47.71
55460;BME280;41326;45.302;-122.946;2023-02-24T03:23:20;100352.74;;;18.56;47.72
55460;BME280;41326;45.302;-122.946;2023-02-24T03:25:55;100356.67;;;18.70;48.05
55460;BME280;41326;45.302;-122.946;2023-02-24T03:28:26;100351.59;;;18.76;48.34
55460;BME280;41326;45.302;-122.946;2023-02-24T03:30:55;100356.49;;;18.75;48.56
55460;BME280;41326;45.302;-122.946;2023-02-24T03:33:25;100361.18;;;18.67;49.28
55460;BME280;41326;45.302;-122.946;2023-02-24T03:35:50;100362.86;;;18.64;50.97
55460;BME280;41326;45.302;-122.946;2023-02-24T03:38:20;100368.91;;;18.60;53.41
55460;BME280;41326;45.302;-122.946;2023-02-24T03:40:51;100371.32;;;18.63;52.92
55460;BME280;41326;45.302;-122.946;2023-02-24T03:43:24;100372.15;;;18.64;52.29
55460;BME280;41326;45.302;-122.946;2023-02-24T03:45:52;100365.78;;;18.58;51.98
55460;BME280;41326;45.302;-122.946;2023-02-24T03:48:22;100378.20;;;18.55;51.60
55460;BME280;41326;45.302;-122.946;2023-02-24T03:50:52;100381.22;;;18.49;51.62
55460;BME280;41326;45.302;-122.946;2023-02-24T03:53:30;100375.54;;;18.50;52.31
55460;BME280;41326;45.302;-122.946;2023-02-24T03:56:02;100373.99;;;18.48;52.47
55460;BME280;41326;45.302;-122.946;2023-02-24T03:58:32;100376.70;;;18.52;52.28
55460;BME280;41326;45.302;-122.946;2023-02-24T04:00:59;100375.79;;;18.51;51.91
55460;BME280;41326;45.302;-122.946;2023-02-24T04:03:27;100383.83;;;18.59;51.44
55460;BME280;41326;45.302;-122.946;2023-02-24T04:06:03;100380.08;;;18.64;51.10
55460;BME280;41326;45.302;-122.946;2023-02-24T04:08:27;100386.03;;;18.67;50.82
55460;BME280;41326;45.302;-122.946;2023-02-24T04:10:59;100387.62;;;18.62;50.69
55460;BME280;41326;45.302;-122.946;2023-02-24T04:13:32;100384.55;;;18.52;51.23
55460;BME280;41326;45.302;-122.946;2023-02-24T04:16:00;100379.51;;;18.50;51.63
55460;BME280;41326;45.302;-122.946;2023-02-24T04:18:29;100377.88;;;18.45;51.18
55460;BME280;41326;45.302;-122.946;2023-02-24T04:20:57;100381.40;;;18.43;51.07
55460;BME280;41326;45.302;-122.946;2023-02-24T04:23:30;100392.53;;;18.47;51.51
55460;BME280;41326;45.302;-122.946;2023-02-24T04:25:58;100398.92;;;18.40;51.29
55460;BME280;41326;45.302;-122.946;2023-02-24T04:28:28;100403.23;;;18.32;51.43
55460;BME280;41326;45.302;-122.946;2023-02-24T04:31:00;100413.87;;;18.25;51.28
55460;BME280;41326;45.302;-122.946;2023-02-24T04:33:28;100409.02;;;18.17;51.29
55460;BME280;41326;45.302;-122.946;2023-02-24T04:35:59;100409.51;;;18.15;50.69
55460;BME280;41326;45.302;-122.946;2023-02-24T04:38:29;100407.84;;;18.09;51.13
55460;BME280;41326;45.302;-122.946;2023-02-24T04:40:59;100409.11;;;18.04;50.94
55460;BME280;41326;45.302;-122.946;2023-02-24T04:43:30;100419.26;;;18.10;50.41
55460;BME280;41326;45.302;-122.946;2023-02-24T04:46:00;100419.55;;;18.29;48.91
55460;BME280;41326;45.302;-122.946;2023-02-24T04:48:30;100418.64;;;18.44;48.73
55460;BME280;41326;45.302;-122.946;2023-02-24T04:51:01;100417.51;;;18.56;48.34
55460;BME280;41326;45.302;-122.946;2023-02-24T04:53:31;100418.22;;;18.52;48.41
55460;BME280;41326;45.302;-122.946;2023-02-24T04:56:01;100425.17;;;18.42;48.60
55460;BME280;41326;45.302;-122.946;2023-02-24T04:58:32;100421.97;;;18.35;48.53
55460;BME280;41326;45.302;-122.946;2023-02-24T05:01:05;100426.80;;;18.33;48.55
55460;BME280;41326;45.302;-122.946;2023-02-24T05:03:32;100423.09;;;18.41;48.18
55460;BME280;41326;45.302;-122.946;2023-02-24T05:06:03;100434.39;;;18.35;48.73
55460;BME280;41326;45.302;-122.946;2023-02-24T05:08:34;100436.36;;;18.30;48.77
55460;BME280;41326;45.302;-122.946;2023-02-24T05:11:03;100437.97;;;18.24;49.03
55460;BME280;41326;45.302;-122.946;2023-02-24T05:13:35;100435.38;;;18.15;49.45
55460;BME280;41326;45.302;-122.946;2023-02-24T05:16:08;100439.40;;;18.12;49.52
55460;BME280;41326;45.302;-122.946;2023-02-24T05:18:35;100443.67;;;18.08;49.26
55460;BME280;41326;45.302;-122.946;2023-02-24T05:21:09;100451.22;;;18.08;49.26
55460;BME280;41326;45.302;-122.946;2023-02-24T05:23:37;100461.28;;;18.04;49.38
55460;BME280;41326;45.302;-122.946;2023-02-24T05:26:08;100465.08;;;17.99;49.81
55460;BME280;41326;45.302;-122.946;2023-02-24T05:28:38;100471.86;;;18.06;48.92
55460;BME280;41326;45.302;-122.946;2023-02-24T05:31:10;100469.47;;;18.10;49.40
55460;BME280;41326;45.302;-122.946;2023-02-24T05:33:37;100476.11;;;18.08;48.98
55460;BME280;41326;45.302;-122.946;2023-02-24T05:36:09;100476.84;;;18.04;49.24
55460;BME280;41326;45.302;-122.946;2023-02-24T05:38:37;100483.39;;;18.00;48.90
55460;BME280;41326;45.302;-122.946;2023-02-24T05:41:10;100493.85;;;17.98;48.77
55460;BME280;41326;45.302;-122.946;2023-02-24T05:43:38;100487.21;;;17.92;48.47
55460;BME280;41326;45.302;-122.946;2023-02-24T05:46:08;100496.48;;;17.90;48.56
55460;BME280;41326;45.302;-122.946;2023-02-24T05:48:38;100504.62;;;17.87;49.39
55460;BME280;41326;45.302;-122.946;2023-02-24T05:51:10;100505.59;;;17.85;49.27
55460;BME280;41326;45.302;-122.946;2023-02-24T05:53:40;100509.28;;;17.77;49.68
55460;BME280;41326;45.302;-122.946;2023-02-24T05:56:10;100514.28;;;17.70;49.58
55460;BME280;41326;45.302;-122.946;2023-02-24T05:58:41;100509.63;;;17.71;49.47
55460;BME280;41326;45.302;-122.946;2023-02-24T06:01:15;100498.93;;;17.69;49.32
55460;BME280;41326;45.302;-122.946;2023-02-24T06:03:41;100510.69;;;17.63;49.50
55460;BME280;41326;45.302;-122.946;2023-02-24T06:06:11;100510.51;;;17.63;49.75
55460;BME280;41326;45.302;-122.946;2023-02-24T06:08:41;100520.54;;;17.57;49.89
55460;BME280;41326;45.302;-122.946;2023-02-24T06:11:11;100525.79;;;17.54;49.85
55460;BME280;41326;45.302;-122.946;2023-02-24T06:13:42;100523.25;;;17.51;50.29
55460;BME280;41326;45.302;-122.946;2023-02-24T06:16:13;100530.13;;;17.48;50.08
55460;BME280;41326;45.302;-122.946;2023-02-24T06:18:46;100537.53;;;17.44;50.04
55460;BME280;41326;45.302;-122.946;2023-02-24T06:21:13;100540.42;;;17.47;49.67
55460;BME280;41326;45.302;-122.946;2023-02-24T06:23:44;100549.40;;;17.40;50.21
55460;BME280;41326;45.302;-122.946;2023-02-24T06:26:14;100554.74;;;17.36;50.24
55460;BME280;41326;45.302;-122.946;2023-02-24T06:28:45;100552.67;;;17.32;50.32
55460;BME280;41326;45.302;-122.946;2023-02-24T06:31:15;100558.63;;;17.26;50.58
55460;BME280;41326;45.302;-122.946;2023-02-24T06:33:46;100560.73;;;17.22;50.58
55460;BME280;41326;45.302;-122.946;2023-02-24T06:36:16;100566.16;;;17.22;50.46
55460;BME280;41326;45.302;-122.946;2023-02-24T06:38:47;100565.62;;;17.17;50.49
55460;BME280;41326;45.302;-122.946;2023-02-24T06:41:17;100572.07;;;17.15;50.20
55460;BME280;41326;45.302;-122.946;2023-02-24T06:43:50;100573.80;;;17.14;50.45
55460;BME280;41326;45.302;-122.946;2023-02-24T06:46:19;100574.93;;;17.08;50.51
55460;BME280;41326;45.302;-122.946;2023-02-24T06:48:48;100573.49;;;17.09;50.42
55460;BME280;41326;45.302;-122.946;2023-02-24T06:51:19;100577.86;;;17.00;50.42
55460;BME280;41326;45.302;-122.946;2023-02-24T06:53:49;100580.63;;;16.98;50.60
55460;BME280;41326;45.302;-122.946;2023-02-24T06:56:20;100581.96;;;16.96;50.83
55460;BME280;41326;45.302;-122.946;2023-02-24T06:58:52;100595.88;;;16.94;50.48
55460;BME280;41326;45.302;-122.946;2023-02-24T07:01:22;100599.68;;;16.93;50.43
55460;BME280;41326;45.302;-122.946;2023-02-24T07:03:52;100609.31;;;16.91;50.81
55460;BME280;41326;45.302;-122.946;2023-02-24T07:06:21;100616.15;;;16.90;50.70
55460;BME280;41326;45.302;-122.946;2023-02-24T07:08:51;100618.96;;;16.88;50.63
55460;BME280;41326;45.302;-122.946;2023-02-24T07:11:21;100620.04;;;16.89;50.43
55460;BME280;41326;45.302;-122.946;2023-02-24T07:13:52;100625.92;;;16.83;50.59
55460;BME280;41326;45.302;-122.946;2023-02-24T07:16:25;100630.27;;;16.82;50.69
55460;BME280;41326;45.302;-122.946;2023-02-24T07:18:53;100635.79;;;16.76;50.60
55460;BME280;41326;45.302;-122.946;2023-02-24T07:21:24;100645.58;;;16.75;50.23
55460;BME280;41326;45.302;-122.946;2023-02-24T07:23:53;100647.75;;;16.72;50.47
55460;BME280;41326;45.302;-122.946;2023-02-24T07:26:25;100650.95;;;16.69;50.85
55460;BME280;41326;45.302;-122.946;2023-02-24T07:28:53;100657.49;;;16.65;50.77
55460;BME280;41326;45.302;-122.946;2023-02-24T07:31:24;100658.56;;;16.62;50.47
55460;BME280;41326;45.302;-122.946;2023-02-24T07:33:57;100658.15;;;16.58;50.78
55460;BME280;41326;45.302;-122.946;2023-02-24T07:36:25;100655.48;;;16.56;50.95
55460;BME280;41326;45.302;-122.946;2023-02-24T07:38:57;100650.89;;;16.56;50.25
55460;BME280;41326;45.302;-122.946;2023-02-24T07:41:26;100655.57;;;16.54;50.63
55460;BME280;41326;45.302;-122.946;2023-02-24T07:43:57;100658.09;;;16.51;50.71
55460;BME280;41326;45.302;-122.946;2023-02-24T07:46:28;100654.00;;;16.49;50.73
55460;BME280;41326;45.302;-122.946;2023-02-24T07:48:57;100656.02;;;16.47;50.53
55460;BME280;41326;45.302;-122.946;2023-02-24T07:51:29;100665.59;;;16.46;50.32
55460;BME280;41326;45.302;-122.946;2023-02-24T07:53:58;100674.34;;;16.37;50.87
55460;BME280;41326;45.302;-122.946;2023-02-24T07:56:28;100668.30;;;16.37;50.90
55460;BME280;41326;45.302;-122.946;2023-02-24T07:59:00;100682.50;;;16.34;50.42
55460;BME280;41326;45.302;-122.946;2023-02-24T08:02:36;100676.73;;;16.28;50.99
55460;BME280;41326;45.302;-122.946;2023-02-24T08:05:05;100676.26;;;16.27;50.77
55460;BME280;41326;45.302;-122.946;2023-02-24T08:07:36;100673.56;;;16.24;51.00
55460;BME280;41326;45.302;-122.946;2023-02-24T08:10:06;100677.57;;;16.23;51.03
55460;BME280;41326;45.302;-122.946;2023-02-24T08:12:37;100678.35;;;16.16;51.43
55460;BME280;41326;45.302;-122.946;2023-02-24T08:15:08;100672.05;;;16.16;51.18
55460;BME280;41326;45.302;-122.946;2023-02-24T08:17:38;100679.00;;;16.15;51.01
55460;BME280;41326;45.302;-122.946;2023-02-24T08:20:09;100678.20;;;16.12;50.99
55460;BME280;41326;45.302;-122.946;2023-02-24T08:22:39;100676.17;;;16.08;50.90
55460;BME280;41326;45.302;-122.946;2023-02-24T08:25:10;100671.72;;;16.06;51.00
55460;BME280;41326;45.302;-122.946;2023-02-24T08:27:40;100671.43;;;16.04;51.34
55460;BME280;41326;45.302;-122.946;2023-02-24T08:30:11;100675.51;;;16.03;51.21
55460;BME280;41326;45.302;-122.946;2023-02-24T08:32:41;100679.98;;;16.01;51.18
55460;BME280;41326;45.302;-122.946;2023-02-24T08:35:12;100682.19;;;16.01;50.97
55460;BME280;41326;45.302;-122.946;2023-02-24T08:37:41;100676.01;;;16.01;50.61
55460;BME280;41326;45.302;-122.946;2023-02-24T08:40:14;100675.95;;;16.00;50.90
55460;BME280;41326;45.302;-122.946;2023-02-24T08:42:40;100663.39;;;15.95;51.28
55460;BME280;41326;45.302;-122.946;2023-02-24T08:45:11;100669.13;;;15.96;50.73
55460;BME280;41326;45.302;-122.946;2023-02-24T08:47:41;100666.43;;;15.90;51.55
55460;BME280;41326;45.302;-122.946;2023-02-24T08:50:12;100667.20;;;15.89;51.58
55460;BME280;41326;45.302;-122.946;2023-02-24T08:52:42;100667.29;;;15.87;51.68
55460;BME280;41326;45.302;-122.946;2023-02-24T08:55:13;100681.22;;;15.84;51.48
55460;BME280;41326;45.302;-122.946;2023-02-24T08:57:43;100683.50;;;15.84;51.43
55460;BME280;41326;45.302;-122.946;2023-02-24T09:00:15;100685.23;;;15.83;51.65
55460;BME280;41326;45.302;-122.946;2023-02-24T09:02:44;100690.01;;;15.79;51.68
55460;BME280;41326;45.302;-122.946;2023-02-24T09:05:15;100692.66;;;15.77;51.78
55460;BME280;41326;45.302;-122.946;2023-02-24T09:07:46;100687.69;;;15.75;51.82
55460;BME280;41326;45.302;-122.946;2023-02-24T09:10:19;100691.83;;;15.72;51.90
55460;BME280;41326;45.302;-122.946;2023-02-24T09:12:46;100691.03;;;15.72;51.67
55460;BME280;41326;45.302;-122.946;2023-02-24T09:15:17;100684.94;;;15.72;51.70
55460;BME280;41326;45.302;-122.946;2023-02-24T09:17:47;100698.49;;;15.73;51.72
55460;BME280;41326;45.302;-122.946;2023-02-24T09:20:19;100700.71;;;15.69;51.69
55460;BME280;41326;45.302;-122.946;2023-02-24T09:22:47;100695.34;;;15.65;51.95
55460;BME280;41326;45.302;-122.946;2023-02-24T09:25:18;100704.55;;;15.64;51.96
55460;BME280;41326;45.302;-122.946;2023-02-24T09:27:49;100707.54;;;15.65;51.67
55460;BME280;41326;45.302;-122.946;2023-02-24T09:30:19;100713.86;;;15.64;51.81
55460;BME280;41326;45.302;-122.946;2023-02-24T09:32:48;100714.48;;;15.59;51.43
55460;BME280;41326;45.302;-122.946;2023-02-24T09:35:19;100719.71;;;15.55;52.14
55460;BME280;41326;45.302;-122.946;2023-02-24T09:37:49;100722.07;;;15.55;51.89
55460;BME280;41326;45.302;-122.946;2023-02-24T09:40:20;100736.82;;;15.53;51.78
55460;BME280;41326;45.302;-122.946;2023-02-24T09:42:51;100743.69;;;15.55;51.53
55460;BME280;41326;45.302;-122.946;2023-02-24T09:45:25;100736.82;;;15.53;52.32
55460;BME280;41326;45.302;-122.946;2023-02-24T09:47:52;100740.24;;;15.50;52.22
55460;BME280;41326;45.302;-122.946;2023-02-24T09:50:28;100743.49;;;15.44;52.51
55460;BME280;41326;45.302;-122.946;2023-02-24T09:52:53;100745.28;;;15.43;51.81
55460;BME280;41326;45.302;-122.946;2023-02-24T09:55:29;100745.16;;;15.43;52.19
55460;BME280;41326;45.302;-122.946;2023-02-24T09:57:54;100739.59;;;15.41;52.18
55460;BME280;41326;45.302;-122.946;2023-02-24T10:00:23;100748.80;;;15.38;52.05
55460;BME280;41326;45.302;-122.946;2023-02-24T10:02:59;100746.66;;;15.34;52.03
55460;BME280;41326;45.302;-122.946;2023-02-24T10:05:30;100752.04;;;15.31;52.26
55460;BME280;41326;45.302;-122.946;2023-02-24T10:07:54;100754.41;;;15.30;52.21
55460;BME280;41326;45.302;-122.946;2023-02-24T10:10:27;100754.56;;;15.25;52.12
55460;BME280;41326;45.302;-122.946;2023-02-24T10:13:00;100750.29;;;15.27;52.12
55460;BME280;41326;45.302;-122.946;2023-02-24T10:15:26;100748.38;;;15.23;52.17
55460;BME280;41326;45.302;-122.946;2023-02-24T10:17:58;100755.58;;;15.24;51.96
55460;BME280;41326;45.302;-122.946;2023-02-24T10:20:28;100764.01;;;15.25;51.22
55460;BME280;41326;45.302;-122.946;2023-02-24T10:23:02;100761.23;;;15.23;51.71
55460;BME280;41326;45.302;-122.946;2023-02-24T10:25:37;100764.96;;;15.16;52.14
55460;BME280;41326;45.302;-122.946;2023-02-24T10:28:02;100772.48;;;15.15;51.78
55460;BME280;41326;45.302;-122.946;2023-02-24T10:30:37;100776.73;;;15.19;51.52
55460;BME280;41326;45.302;-122.946;2023-02-24T10:32:59;100775.89;;;15.36;50.68
55460;BME280;41326;45.302;-122.946;2023-02-24T10:35:28;100783.06;;;15.40;50.18
55460;BME280;41326;45.302;-122.946;2023-02-24T10:37:59;100779.12;;;15.40;50.41
55460;BME280;41326;45.302;-122.946;2023-02-24T10:40:28;100769.11;;;15.38;50.67
55460;BME280;41326;45.302;-122.946;2023-02-24T10:43:03;100779.41;;;15.35;50.74
55460;BME280;41326;45.302;-122.946;2023-02-24T10:45:30;100776.47;;;15.26;50.83
55460;BME280;41326;45.302;-122.946;2023-02-24T10:48:05;100779.94;;;15.21;51.34
55460;BME280;41326;45.302;-122.946;2023-02-24T10:50:31;100785.98;;;15.15;51.15
55460;BME280;41326;45.302;-122.946;2023-02-24T10:53:05;100786.20;;;15.12;51.65
55460;BME280;41326;45.302;-122.946;2023-02-24T10:55:33;100790.63;;;15.11;51.23
55460;BME280;41326;45.302;-122.946;2023-02-24T10:58:05;100785.02;;;15.10;50.97
55460;BME280;41326;45.302;-122.946;2023-02-24T11:03:05;100784.09;;;15.02;51.41
55460;BME280;41326;45.302;-122.946;2023-02-24T11:05:34;100784.79;;;15.08;51.35
55460;BME280;41326;45.302;-122.946;2023-02-24T11:08:09;100786.55;;;15.21;50.87
55460;BME280;41326;45.302;-122.946;2023-02-24T11:10:35;100795.25;;;15.30;50.14
55460;BME280;41326;45.302;-122.946;2023-02-24T11:13:05;100790.92;;;15.30;49.99
55460;BME280;41326;45.302;-122.946;2023-02-24T11:15:35;100780.96;;;15.24;50.09
55460;BME280;41326;45.302;-122.946;2023-02-24T11:18:04;100776.00;;;15.16;50.73
55460;BME280;41326;45.302;-122.946;2023-02-24T11:20:35;100778.18;;;15.14;50.86
55460;BME280;41326;45.302;-122.946;2023-02-24T11:23:10;100783.83;;;15.10;50.84
55460;BME280;41326;45.302;-122.946;2023-02-24T11:25:41;100782.25;;;15.03;51.26
55460;BME280;41326;45.302;-122.946;2023-02-24T11:28:05;100786.38;;;15.08;50.85
55460;BME280;41326;45.302;-122.946;2023-02-24T11:30:40;100780.92;;;15.16;50.54
55460;BME280;41326;45.302;-122.946;2023-02-24T11:33:16;100780.29;;;15.32;49.88
55460;BME280;41326;45.302;-122.946;2023-02-24T11:35:42;100784.51;;;15.33;49.68
55460;BME280;41326;45.302;-122.946;2023-02-24T11:38:14;100788.36;;;15.26;50.22
55460;BME280;41326;45.302;-122.946;2023-02-24T11:40:39;100790.14;;;15.21;50.49
55460;BME280;41326;45.302;-122.946;2023-02-24T11:43:11;100788.64;;;15.17;50.63
55460;BME280;41326;45.302;-122.946;2023-02-24T11:45:41;100789.39;;;15.15;50.58
55460;BME280;41326;45.302;-122.946;2023-02-24T11:48:12;100791.83;;;15.08;50.86
55460;BME280;41326;45.302;-122.946;2023-02-24T11:50:44;100799.04;;;15.07;50.60
55460;BME280;41326;45.302;-122.946;2023-02-24T11:53:14;100802.59;;;15.01;50.82
55460;BME280;41326;45.302;-122.946;2023-02-24T11:55:42;100809.57;;;15.06;50.49
55460;BME280;41326;45.302;-122.946;2023-02-24T11:58:16;100809.47;;;15.23;49.89
55460;BME280;41326;45.302;-122.946;2023-02-24T12:00:43;100813.54;;;15.28;49.51
55460;BME280;41326;45.302;-122.946;2023-02-24T12:03:14;100812.99;;;15.29;49.57
55460;BME280;41326;45.302;-122.946;2023-02-24T12:05:45;100824.25;;;15.27;49.63
55460;BME280;41326;45.302;-122.946;2023-02-24T12:08:17;100822.46;;;15.20;49.52
55460;BME280;41326;45.302;-122.946;2023-02-24T12:10:46;100822.61;;;15.13;50.07
55460;BME280;41326;45.302;-122.946;2023-02-24T12:13:18;100830.43;;;15.06;50.12
55460;BME280;41326;45.302;-122.946;2023-02-24T12:15:47;100830.24;;;15.05;50.20
55460;BME280;41326;45.302;-122.946;2023-02-24T12:18:21;100826.64;;;15.19;49.48
55460;BME280;41326;45.302;-122.946;2023-02-24T12:20:46;100832.85;;;15.33;49.04
55460;BME280;41326;45.302;-122.946;2023-02-24T12:23:19;100834.76;;;15.36;49.05
55460;BME280;41326;45.302;-122.946;2023-02-24T12:25:55;100835.23;;;15.36;48.78
55460;BME280;41326;45.302;-122.946;2023-02-24T12:28:21;100821.39;;;15.26;49.14
55460;BME280;41326;45.302;-122.946;2023-02-24T12:30:53;100821.89;;;15.17;49.68
55460;BME280;41326;45.302;-122.946;2023-02-24T12:35:50;100823.06;;;15.13;49.45
55460;BME280;41326;45.302;-122.946;2023-02-24T12:38:26;100832.63;;;15.23;49.04
55460;BME280;41326;45.302;-122.946;2023-02-24T12:40:48;100830.51;;;15.40;48.40
55460;BME280;41326;45.302;-122.946;2023-02-24T12:43:23;100832.26;;;15.42;48.00
55460;BME280;41326;45.302;-122.946;2023-02-24T12:45:52;100831.75;;;15.38;48.52
55460;BME280;41326;45.302;-122.946;2023-02-24T12:48:23;100826.85;;;15.32;48.67